Parksville, Canada
Current Conditions -  °F | °C
As of 9:00 PM on Thursday 27 Nov 2014 (Local Time) from CYCD Reporting Station
Rain Showers Rain Showers  
Wind Chill: 13°   Ceiling: 5000
Heat Index: 13°   Visibility: 15mi
Dew Point:   Wind: 15mph
Humidity: 77%   Direction: 170°S
Pressure: 29.52"   Gusts: NA
Location:  49.32°N, 124.31°W
Report Text: CYCD 280500Z 17013KT 15SM -SHRA SCT030 BKN050TCU 13/09 A2952 RMK CU3TCU3 LAST OBS/NEXT 281400 UTC SLP997 DENSITY ALT 300FT
Loading
Personal Weather Stations






























Interactive Weather Map New forecast layout! Learn more

10-Day Weather Forecast

Advertisements
Track Severe Weather on mobile